createdAt,value
2023-10-04T17:20:33.272Z,2.30
2023-10-04T17:23:00.054Z,2.30
2023-10-04T17:25:26.870Z,2.28
2023-10-04T17:27:53.642Z,2.05
2023-10-04T17:30:21.696Z,1.95
2023-10-04T17:32:48.884Z,2.20
2023-10-04T17:35:17.261Z,2.58
2023-10-04T17:37:44.630Z,3.72
2023-10-04T17:40:11.555Z,2.78
2023-10-04T17:42:38.453Z,1.95
2023-10-04T17:45:05.585Z,1.90
2023-10-04T17:47:32.375Z,2.22
2023-10-04T17:49:59.176Z,2.53
2023-10-04T17:52:27.368Z,2.88
2023-10-04T17:54:54.867Z,4.43
2023-10-04T17:57:23.495Z,4.70
2023-10-04T17:59:50.335Z,4.63
2023-10-04T18:02:17.080Z,5.25
2023-10-04T18:04:43.947Z,6.35
2023-10-04T18:07:11.449Z,5.32
2023-10-04T18:09:40.075Z,5.80
2023-10-04T18:12:06.849Z,5.20
2023-10-04T18:14:33.633Z,4.20
2023-10-04T18:17:00.445Z,4.13
2023-10-04T18:19:27.351Z,4.15
2023-10-04T18:21:54.273Z,4.15
2023-10-04T18:24:21.019Z,3.97
2023-10-04T18:26:47.732Z,3.95
2023-10-04T18:29:14.508Z,4.30
2023-10-04T18:31:42.610Z,3.88
2023-10-04T18:34:10.568Z,4.55
2023-10-04T18:36:41.847Z,4.03
2023-10-04T18:39:11.198Z,4.43
2023-10-04T18:41:38.012Z,3.65
2023-10-04T18:44:05.499Z,4.50
2023-10-04T18:46:33.344Z,4.70
2023-10-04T18:49:00.392Z,4.20
2023-10-04T18:51:27.268Z,4.63
2023-10-04T18:53:54.144Z,5.53
2023-10-04T18:56:22.735Z,5.28
2023-10-04T18:58:49.949Z,5.63
2023-10-04T19:01:19.617Z,5.93
2023-10-04T19:03:46.592Z,5.07
2023-10-04T19:06:14.010Z,5.03
2023-10-04T19:08:40.769Z,4.35
2023-10-04T19:11:07.830Z,4.10
2023-10-04T19:13:35.924Z,3.80
2023-10-04T19:16:05.340Z,3.97
2023-10-04T19:18:32.312Z,3.97
2023-10-04T19:21:00.351Z,4.95
2023-10-04T19:23:27.175Z,4.55
2023-10-04T19:25:54.399Z,3.67
2023-10-04T19:28:22.430Z,3.00
2023-10-04T19:30:50.140Z,3.60
2023-10-04T19:33:17.200Z,3.28
2023-10-04T19:35:44.144Z,3.13
2023-10-04T19:38:11.231Z,3.28
2023-10-04T19:40:39.021Z,2.95
2023-10-04T19:43:06.247Z,3.83
2023-10-04T19:45:33.319Z,3.50
2023-10-04T19:48:00.298Z,4.55
2023-10-04T19:50:27.128Z,5.40
2023-10-04T19:52:54.213Z,5.15
2023-10-04T19:55:20.990Z,3.88
2023-10-04T19:57:47.898Z,4.18
2023-10-04T20:00:22.735Z,3.65
2023-10-04T20:02:52.903Z,2.88
2023-10-04T20:05:32.706Z,3.20
2023-10-04T20:08:03.527Z,2.97
2023-10-04T20:10:34.232Z,2.78
2023-10-04T20:13:01.620Z,3.00
2023-10-04T20:15:28.667Z,3.10
2023-10-04T20:17:55.457Z,3.10
2023-10-04T20:20:28.396Z,3.42
2023-10-04T20:22:55.548Z,3.25
2023-10-04T20:25:22.368Z,3.45
2023-10-04T20:27:49.220Z,2.83
2023-10-04T20:30:16.990Z,2.72
2023-10-04T20:32:43.996Z,3.60
2023-10-04T20:35:11.535Z,3.42
2023-10-04T20:37:38.522Z,2.90
2023-10-04T20:40:08.679Z,3.20
2023-10-04T20:42:36.591Z,3.70
2023-10-04T20:45:05.530Z,4.25
2023-10-04T20:47:32.808Z,3.97
2023-10-04T20:49:59.691Z,4.07
2023-10-04T20:52:26.422Z,4.55
2023-10-04T20:54:53.272Z,4.05
2023-10-04T20:57:21.865Z,3.72
2023-10-04T20:59:49.190Z,3.20
2023-10-04T21:02:17.675Z,3.58
2023-10-04T21:04:47.752Z,3.00
2023-10-04T21:07:14.872Z,3.50
2023-10-04T21:09:42.113Z,3.22
2023-10-04T21:12:12.378Z,2.22
2023-10-04T22:04:30.096Z,3.20
2023-10-04T22:07:10.383Z,2.90
2023-10-04T22:09:44.334Z,2.50
2023-10-04T22:12:17.364Z,2.60
2023-10-04T22:14:45.281Z,2.50
2023-10-04T22:17:13.981Z,2.63
2023-10-04T22:19:40.809Z,3.28
2023-10-04T22:22:11.968Z,2.75
2023-10-04T22:24:59.207Z,3.10
2023-10-04T22:27:27.214Z,3.67
2023-10-04T22:29:57.332Z,3.10
2023-10-04T22:32:24.869Z,3.00
2023-10-04T22:34:53.600Z,2.88
2023-10-04T22:37:20.771Z,3.05
2023-10-04T22:39:47.844Z,3.10
2023-10-04T22:42:15.678Z,2.63
2023-10-04T22:44:42.892Z,2.45
2023-10-04T22:47:11.320Z,2.85
2023-10-04T22:49:38.639Z,2.95
2023-10-04T22:52:05.704Z,2.72
2023-10-04T22:54:32.604Z,2.70
2023-10-04T22:57:01.261Z,2.92
2023-10-04T22:59:28.224Z,3.63
2023-10-04T23:01:56.410Z,3.00
2023-10-04T23:04:23.378Z,2.95
2023-10-04T23:06:50.863Z,2.95
2023-10-04T23:09:18.669Z,3.20
2023-10-04T23:11:47.100Z,3.75
2023-10-04T23:14:14.280Z,3.40
2023-10-04T23:16:44.785Z,2.90
2023-10-04T23:19:18.384Z,2.13
2023-10-04T23:21:50.828Z,2.97
2023-10-04T23:24:19.173Z,3.22
2023-10-04T23:26:46.089Z,2.67
2023-10-04T23:29:14.734Z,2.85
2023-10-04T23:31:43.712Z,2.97
2023-10-04T23:34:11.065Z,2.85
2023-10-04T23:36:41.991Z,2.78
2023-10-04T23:39:09.844Z,2.25
2023-10-04T23:41:38.071Z,2.58
2023-10-04T23:44:05.832Z,2.58
2023-10-04T23:46:32.865Z,2.53
2023-10-04T23:49:10.486Z,2.28
2023-10-04T23:51:37.970Z,2.53
2023-10-04T23:54:08.849Z,2.28
2023-10-04T23:56:54.660Z,2.42
2023-10-04T23:59:22.398Z,2.50
